Zanesville Municipal Airport Zanesville US
ICAO: KZZV
IATA: ZZV
Category: Medium
Scheduled Services: No

Elevation: 900 ft
TransAlt. 18000 ft.

Airport Communications:
ASOS:111.4
INDIANAPOLIS CNTR:124.45
CLEVELAND RDO:122.2
CTAF/UNICOM:123

KZZV Zoom In..

If you have problems with the map follow the link
https://www.worldairports.se/pages/airport.php?
ICAO=KZZV

Runways:

(A) RW 04 length 5000 ft width 150 ft
---- / hdg 40

(B) RW 16 length 4999 ft width 150 ft
---- / hdg 158

(C) RW 22 length 5000 ft width 150 ft
ILS 109.95 / hdg 220

(D) RW 34 length 4999 ft width 150 ft
---- / hdg 338

Location; KZZV
Day. 07 / Time. 07.53 Zulu
* Altimeter: 30.34
* Temperature: -03° c. -26.6°f.
* Wind from: 000° Speed 00 kn.
Dewpoint: -07° c.
Visibility: 10 Statute Miles.
Clouds: Clear (automated report).

KZZV 070753Z AUTO 00000KT 10SM CLR M03/M07 A3034 RMK AO2 SLP280 T10331067 $


Wind - Calm.

 
 
jpsmedia worldairports.se 2019   terms of use